Time;durP1;ratioP1;P1;durP2;ratioP2;P2;SDS_P1;SDS_P2;PMS_P1;PMS_P2;Temp;Humidity;BMP_temperature;BMP_pressure;BME280_temperature;BME280_humidity;BME280_pressure;Samples;Min_cycle;Max_cycle;Signal;HPM_P1;HPM_P2
2021/08/03 00:01:41;;;;;;;2.13;1.35;;;14.90;84.40;;;;;;3541268;40;20046;-66
2021/08/03 00:04:12;;;;;;;1.92;1.40;;;14.80;84.10;;;;;;3548748;40;20747;-65
2021/08/03 00:06:52;;;;;;;1.98;1.50;;;14.80;84.60;;;;;;3541303;40;20038;-70
2021/08/03 00:09:19;;;;;;;1.63;1.42;;;14.70;85.30;;;;;;3542373;40;20041;-70
2021/08/03 00:11:46;;;;;;;1.27;1.13;;;14.70;85.70;;;;;;3548101;40;20044;-69
2021/08/03 00:14:13;;;;;;;1.70;1.55;;;14.70;86.00;;;;;;3541928;40;20042;-70
2021/08/03 00:16:42;;;;;;;1.75;1.35;;;14.70;86.10;;;;;;3541153;40;20128;-69
2021/08/03 00:19:09;;;;;;;4.47;1.42;;;14.60;85.90;;;;;;3541236;40;20423;-69
2021/08/03 00:21:35;;;;;;;2.22;1.08;;;14.60;85.80;;;;;;3548257;40;20086;-69
2021/08/03 00:24:02;;;;;;;3.15;1.23;;;14.60;85.50;;;;;;3541595;40;20069;-68
2021/08/03 00:26:28;;;;;;;2.15;1.50;;;14.60;85.40;;;;;;3539481;40;20043;-68
2021/08/03 00:28:55;;;;;;;1.92;1.35;;;14.60;85.20;;;;;;3541315;40;20513;-70
2021/08/03 00:31:25;;;;;;;1.60;1.15;;;14.50;85.30;;;;;;3539783;40;20674;-70
2021/08/03 00:33:55;;;;;;;2.42;1.23;;;14.50;85.40;;;;;;3541919;40;20041;-64
2021/08/03 00:36:25;;;;;;;4.13;1.40;;;14.50;85.50;;;;;;3541378;40;20038;-65
2021/08/03 00:38:53;;;;;;;4.03;1.40;;;14.50;85.40;;;;;;3540643;40;20037;-65
2021/08/03 00:41:26;;;;;;;2.30;1.40;;;14.40;85.20;;;;;;3547258;40;20046;-66
2021/08/03 00:43:52;;;;;;;4.07;1.30;;;14.40;85.10;;;;;;3541011;40;20056;-67
2021/08/03 00:46:18;;;;;;;3.05;1.35;;;14.40;85.00;;;;;;3541729;40;20409;-65
2021/08/03 00:48:44;;;;;;;2.88;1.50;;;14.30;85.20;;;;;;3541866;40;20027;-65
2021/08/03 00:51:09;;;;;;;3.10;1.20;;;14.30;86.10;;;;;;3541726;40;20085;-65
2021/08/03 00:53:36;;;;;;;2.33;1.38;;;14.30;86.70;;;;;;3541804;40;20038;-64
2021/08/03 00:56:02;;;;;;;2.25;1.52;;;14.30;87.20;;;;;;3540489;40;20577;-65
2021/08/03 00:58:31;;;;;;;3.80;1.63;;;14.30;87.60;;;;;;3540971;40;20337;-65
2021/08/03 01:00:58;;;;;;;1.58;1.40;;;14.30;87.90;;;;;;3548201;40;20034;-66
2021/08/03 01:03:24;;;;;;;3.53;1.50;;;14.30;88.20;;;;;;3544536;40;20074;-64
2021/08/03 01:06:03;;;;;;;1.75;1.33;;;14.30;88.30;;;;;;3541228;40;20023;-64
2021/08/03 01:08:37;;;;;;;2.97;1.98;;;14.40;88.00;;;;;;3548829;40;20148;-66
2021/08/03 01:11:07;;;;;;;6.40;1.95;;;14.40;88.50;;;;;;3540596;40;20031;-66
2021/08/03 01:13:55;;;;;;;3.08;1.60;;;14.40;88.50;;;;;;3541418;40;20058;-65
2021/08/03 01:16:48;;;;;;;;;;;14.50;88.20;;;;;;3541517;40;20038;-65
2021/08/03 01:19:33;;;;;;;2.13;1.40;;;14.60;87.10;;;;;;3546506;40;19953;-65
2021/08/03 01:22:23;;;;;;;4.40;1.73;;;14.60;86.60;;;;;;3548792;40;20454;-66
2021/08/03 01:25:15;;;;;;;1.88;1.23;;;14.60;87.10;;;;;;3540088;40;20069;-66
2021/08/03 01:28:07;;;;;;;3.80;1.23;;;14.70;87.70;;;;;;3543063;40;20417;-66
2021/08/03 01:30:36;;;;;;;3.28;1.45;;;14.60;88.10;;;;;;3540291;40;20030;-64
2021/08/03 01:33:03;;;;;;;3.30;1.48;;;14.70;88.30;;;;;;3538690;40;20688;-67
2021/08/03 01:35:29;;;;;;;2.95;1.27;;;14.70;88.50;;;;;;3539957;40;20039;-65
2021/08/03 01:37:59;;;;;;;2.20;1.10;;;14.70;88.60;;;;;;3539457;40;20042;-64
2021/08/03 01:40:27;;;;;;;4.32;2.13;;;14.70;88.40;;;;;;3540433;40;20041;-65
2021/08/03 01:42:55;;;;;;;3.47;1.80;;;14.70;88.10;;;;;;3540586;40;20030;-66
2021/08/03 01:45:23;;;;;;;1.90;1.27;;;14.70;87.80;;;;;;3541942;40;20034;-66
2021/08/03 01:47:53;;;;;;;4.88;1.65;;;14.70;87.80;;;;;;3541575;40;20035;-65
2021/08/03 01:50:23;;;;;;;2.40;1.40;;;14.60;87.70;;;;;;3541531;40;20067;-65
2021/08/03 01:52:56;;;;;;;2.65;1.35;;;14.60;87.60;;;;;;3549327;40;20105;-65
2021/08/03 01:55:27;;;;;;;2.08;1.45;;;14.60;87.40;;;;;;3541581;40;20057;-65
2021/08/03 01:57:57;;;;;;;3.53;1.38;;;14.60;87.20;;;;;;3548808;40;20046;-66
2021/08/03 02:00:32;;;;;;;3.05;1.45;;;14.60;87.20;;;;;;3539995;40;20118;-66
2021/08/03 02:03:12;;;;;;;3.25;1.80;;;14.60;87.30;;;;;;3539801;40;20144;-65
2021/08/03 02:05:41;;;;;;;1.80;1.42;;;14.50;87.40;;;;;;3541751;40;20050;-65
2021/08/03 02:08:36;;;;;;;3.47;1.35;;;14.50;88.10;;;;;;3539487;40;20132;-65
2021/08/03 02:11:09;;;;;;;3.70;1.48;;;14.40;88.10;;;;;;3541028;40;20046;-65
2021/08/03 02:13:35;;;;;;;1.80;1.40;;;14.40;87.70;;;;;;3540741;40;20062;-65
2021/08/03 02:16:02;;;;;;;4.13;1.90;;;14.30;87.70;;;;;;3540685;40;20471;-65
2021/08/03 02:18:30;;;;;;;2.78;1.48;;;14.30;86.80;;;;;;3548955;40;20312;-65
2021/08/03 02:20:56;;;;;;;2.55;1.55;;;14.30;86.40;;;;;;3541830;40;20044;-65
2021/08/03 02:23:28;;;;;;;5.20;2.22;;;14.20;86.40;;;;;;3540776;40;20112;-65
2021/08/03 02:26:00;;;;;;;4.35;2.50;;;14.10;87.00;;;;;;3540041;40;20034;-65
2021/08/03 02:28:26;;;;;;;2.97;1.63;;;14.10;87.10;;;;;;3541834;40;20026;-64
2021/08/03 02:30:56;;;;;;;4.18;1.70;;;14.20;87.60;;;;;;3542010;40;20029;-64
2021/08/03 02:33:34;;;;;;;5.75;2.15;;;14.10;87.80;;;;;;3545689;40;20086;-65
2021/08/03 02:36:07;;;;;;;3.28;2.03;;;14.10;88.20;;;;;;3549334;40;20089;-65
2021/08/03 02:38:41;;;;;;;3.70;1.75;;;14.10;88.20;;;;;;3541921;40;20232;-65
2021/08/03 02:41:09;;;;;;;3.53;1.52;;;14.20;88.50;;;;;;3540361;40;20078;-65
2021/08/03 02:43:40;;;;;;;6.15;1.65;;;14.20;88.60;;;;;;3540335;40;20043;-65
2021/08/03 02:46:10;;;;;;;2.97;1.30;;;14.20;89.30;;;;;;3542242;40;20510;-65
2021/08/03 02:48:36;;;;;;;2.30;1.52;;;14.20;88.50;;;;;;3541969;40;20110;-64
2021/08/03 02:51:02;;;;;;;3.17;1.73;;;14.30;88.60;;;;;;3540518;40;20846;-66
2021/08/03 02:53:43;;;;;;;4.07;1.52;;;14.30;88.40;;;;;;3542042;40;20039;-65
2021/08/03 02:56:15;;;;;;;2.53;1.73;;;14.30;88.30;;;;;;3541769;40;20035;-66
2021/08/03 02:58:48;;;;;;;2.50;1.52;;;14.40;88.60;;;;;;3542185;40;20074;-65
2021/08/03 03:01:15;;;;;;;1.90;1.48;;;14.40;87.90;;;;;;3532399;40;20038;-65
2021/08/03 03:03:51;;;;;;;2.42;1.60;;;14.50;87.70;;;;;;3548110;40;20051;-65
2021/08/03 03:06:23;;;;;;;4.65;1.38;;;14.60;88.00;;;;;;3539862;40;20030;-65
2021/08/03 03:08:54;;;;;;;2.63;1.40;;;14.60;87.40;;;;;;3540785;40;20039;-64
2021/08/03 03:11:25;;;;;;;2.70;1.40;;;14.60;87.70;;;;;;3548922;40;20064;-65
2021/08/03 03:13:55;;;;;;;2.55;1.30;;;14.70;87.60;;;;;;3542380;40;20031;-65
2021/08/03 03:16:23;;;;;;;3.47;1.58;;;14.70;87.10;;;;;;3540482;40;20093;-65
2021/08/03 03:18:51;;;;;;;4.05;1.60;;;14.70;86.70;;;;;;3541654;40;20125;-65
2021/08/03 03:21:20;;;;;;;2.13;1.27;;;14.80;86.90;;;;;;3548191;40;20049;-65
2021/08/03 03:23:53;;;;;;;1.90;1.45;;;14.80;86.30;;;;;;3540736;40;20038;-66
2021/08/03 03:26:25;;;;;;;1.63;1.50;;;14.80;86.00;;;;;;3542051;40;20050;-66
2021/08/03 03:28:53;;;;;;;2.55;1.45;;;14.80;85.70;;;;;;3540475;40;20042;-66
2021/08/03 03:31:21;;;;;;;2.22;1.48;;;14.90;86.30;;;;;;3548580;40;20095;-65
2021/08/03 03:33:52;;;;;;;2.58;1.40;;;14.90;85.70;;;;;;3540496;40;20352;-65
2021/08/03 03:36:24;;;;;;;3.85;1.55;;;15.00;86.00;;;;;;3542060;40;20038;-67
2021/08/03 03:38:51;;;;;;;2.83;1.48;;;15.00;86.30;;;;;;3548602;40;20046;-66
2021/08/03 03:41:17;;;;;;;1.75;1.50;;;15.00;86.30;;;;;;3541723;40;20320;-66
2021/08/03 03:43:42;;;;;;;3.42;1.50;;;15.10;86.40;;;;;;3542408;40;20086;-64
2021/08/03 03:46:13;;;;;;;3.63;1.80;;;15.10;86.60;;;;;;3541834;40;20042;-66
2021/08/03 03:49:00;;;;;;;2.83;1.48;;;15.20;86.10;;;;;;3539444;40;20399;-65
2021/08/03 03:51:29;;;;;;;3.03;1.48;;;15.20;86.60;;;;;;3539750;40;20041;-65
2021/08/03 03:54:03;;;;;;;2.20;1.50;;;15.20;86.10;;;;;;3541419;40;20753;-65
2021/08/03 03:56:36;;;;;;;1.85;1.30;;;15.20;85.90;;;;;;3541344;40;20128;-65
2021/08/03 03:59:04;;;;;;;1.67;1.02;;;15.30;85.30;;;;;;3542165;40;20041;-65
2021/08/03 04:01:31;;;;;;;3.92;1.50;;;15.30;85.10;;;;;;3548565;40;20608;-65
2021/08/03 04:04:04;;;;;;;3.70;1.88;;;15.30;85.40;;;;;;3541320;40;20324;-65
2021/08/03 04:06:32;;;;;;;2.13;1.83;;;15.30;85.80;;;;;;3541910;40;20046;-65
2021/08/03 04:08:59;;;;;;;5.10;1.48;;;15.30;85.40;;;;;;3538587;40;20047;-65
2021/08/03 04:11:26;;;;;;;2.47;1.50;;;15.40;85.00;;;;;;3540724;40;20046;-66
2021/08/03 04:13:55;;;;;;;3.15;1.40;;;15.40;85.10;;;;;;3540413;40;20044;-65
2021/08/03 04:16:22;;;;;;;3.97;1.50;;;15.40;85.00;;;;;;3541436;40;20124;-65
2021/08/03 04:18:48;;;;;;;2.92;1.65;;;15.40;84.90;;;;;;3541548;40;20043;-65
2021/08/03 04:21:14;;;;;;;1.38;1.15;;;15.50;85.10;;;;;;3548066;40;20046;-65
2021/08/03 04:23:40;;;;;;;2.08;1.23;;;15.50;84.70;;;;;;3541486;40;20564;-66
2021/08/03 04:26:06;;;;;;;3.42;1.80;;;15.50;84.90;;;;;;3547776;40;20030;-65
2021/08/03 04:28:32;;;;;;;2.00;1.52;;;15.50;85.10;;;;;;3540324;40;20085;-65
2021/08/03 04:30:59;;;;;;;5.07;1.60;;;15.50;84.60;;;;;;3538733;40;20077;-64
2021/08/03 04:33:26;;;;;;;2.97;1.75;;;15.60;84.50;;;;;;3540184;40;20126;-65
2021/08/03 04:35:51;;;;;;;2.63;1.42;;;15.60;84.50;;;;;;3539643;40;20030;-66
2021/08/03 04:38:17;;;;;;;5.78;1.50;;;15.60;84.30;;;;;;3540119;40;20038;-66
2021/08/03 04:40:43;;;;;;;3.53;1.45;;;15.70;84.30;;;;;;3540285;40;20030;-65
2021/08/03 04:43:09;;;;;;;2.53;1.55;;;15.70;84.10;;;;;;3547115;40;20030;-66
2021/08/03 04:45:34;;;;;;;2.83;1.95;;;15.80;84.00;;;;;;3538569;40;20038;-66
2021/08/03 04:48:00;;;;;;;3.35;1.92;;;15.90;84.00;;;;;;3540026;40;20030;-66
2021/08/03 04:50:27;;;;;;;2.53;1.90;;;15.90;84.10;;;;;;3540548;40;20085;-66
2021/08/03 04:52:55;;;;;;;7.35;1.83;;;16.00;83.50;;;;;;3540403;40;20023;-65
2021/08/03 04:55:21;;;;;;;4.22;1.60;;;16.00;83.40;;;;;;3538796;40;20034;-66
2021/08/03 04:57:47;;;;;;;2.17;1.38;;;16.10;83.40;;;;;;3539930;40;20042;-66
2021/08/03 05:00:14;;;;;;;1.70;1.30;;;16.10;83.20;;;;;;3540966;40;20082;-66
2021/08/03 05:02:41;;;;;;;1.95;1.73;;;16.10;83.70;;;;;;3539867;40;20050;-65
2021/08/03 05:05:08;;;;;;;2.33;1.40;;;16.20;83.50;;;;;;3540406;40;20030;-65
2021/08/03 05:07:34;;;;;;;1.80;1.42;;;16.20;83.30;;;;;;3540465;40;20056;-65
2021/08/03 05:10:01;;;;;;;2.13;1.20;;;16.30;83.20;;;;;;3538705;40;20034;-64
2021/08/03 05:12:27;;;;;;;2.53;1.35;;;16.30;83.10;;;;;;3540612;40;20070;-65
2021/08/03 05:14:58;;;;;;;2.90;1.60;;;16.30;83.30;;;;;;3539836;40;20045;-66
2021/08/03 05:17:24;;;;;;;2.05;1.40;;;16.40;83.60;;;;;;3541329;40;20050;-65
2021/08/03 05:19:51;;;;;;;1.98;1.15;;;16.40;83.10;;;;;;3540797;40;20058;-67
2021/08/03 05:22:17;;;;;;;4.80;1.50;;;16.40;83.20;;;;;;3539875;40;20060;-65
2021/08/03 05:24:43;;;;;;;2.20;1.50;;;16.50;83.50;;;;;;3541317;40;20034;-65
2021/08/03 05:27:09;;;;;;;2.35;1.42;;;16.60;83.60;;;;;;3540959;40;20495;-65
2021/08/03 05:29:34;;;;;;;2.22;1.60;;;16.60;83.70;;;;;;3540562;40;20082;-65
2021/08/03 05:32:00;;;;;;;1.42;1.23;;;16.60;84.20;;;;;;3540364;40;20035;-65
2021/08/03 05:34:26;;;;;;;2.45;1.63;;;16.70;83.60;;;;;;3540209;40;20380;-65
2021/08/03 05:36:51;;;;;;;3.65;1.50;;;16.70;82.90;;;;;;3540900;40;20022;-66
2021/08/03 05:39:17;;;;;;;2.63;1.30;;;16.80;83.20;;;;;;3540321;40;20044;-65
2021/08/03 05:41:43;;;;;;;5.28;1.83;;;16.80;83.90;;;;;;3539221;40;20039;-64
2021/08/03 05:44:09;;;;;;;2.88;1.30;;;16.90;83.40;;;;;;3540979;40;20030;-66
2021/08/03 05:46:34;;;;;;;4.57;1.60;;;16.90;83.50;;;;;;3540266;40;20034;-66
2021/08/03 05:49:02;;;;;;;4.82;1.60;;;17.00;82.30;;;;;;3540613;40;20216;-66
2021/08/03 05:51:27;;;;;;;4.82;1.70;;;17.00;81.80;;;;;;3539709;40;20117;-65
2021/08/03 05:53:53;;;;;;;1.95;1.60;;;17.00;81.70;;;;;;3540926;40;20038;-65
2021/08/03 05:56:19;;;;;;;3.10;1.60;;;17.10;81.90;;;;;;3539215;40;20535;-66
2021/08/03 05:58:45;;;;;;;2.78;1.42;;;17.20;82.40;;;;;;3539876;40;20729;-65
2021/08/03 06:01:10;;;;;;;1.50;1.17;;;17.30;82.40;;;;;;3541218;40;20046;-65
2021/08/03 06:03:36;;;;;;;3.05;1.60;;;17.40;82.70;;;;;;3540803;40;20600;-66
2021/08/03 06:06:05;;;;;;;4.18;1.77;;;17.40;83.00;;;;;;3547989;40;20112;-65
2021/08/03 06:08:32;;;;;;;3.17;1.60;;;17.50;82.60;;;;;;3541129;40;20019;-65
2021/08/03 06:10:59;;;;;;;2.35;1.50;;;17.50;82.10;;;;;;3540304;40;20049;-65
2021/08/03 06:13:26;;;;;;;3.15;1.63;;;17.50;82.90;;;;;;3540705;40;20038;-65
2021/08/03 06:15:53;;;;;;;3.40;1.50;;;17.50;83.60;;;;;;3540541;40;20026;-65
2021/08/03 06:18:29;;;;;;;3.38;1.73;;;17.50;83.40;;;;;;3540839;40;20082;-66
2021/08/03 06:20:56;;;;;;;2.92;1.88;;;17.50;83.50;;;;;;3540308;40;20046;-66
2021/08/03 06:23:26;;;;;;;3.60;2.00;;;17.50;83.60;;;;;;3539146;40;20344;-65
2021/08/03 06:25:53;;;;;;;3.00;1.63;;;17.50;83.70;;;;;;3539608;40;20045;-66
2021/08/03 06:28:23;;;;;;;1.67;1.58;;;17.50;83.70;;;;;;3541968;40;20185;-65
2021/08/03 06:30:50;;;;;;;3.53;1.83;;;17.50;82.90;;;;;;3542246;40;20616;-65
2021/08/03 06:33:17;;;;;;;5.60;1.67;;;17.50;82.60;;;;;;3549840;40;20089;-65
2021/08/03 06:35:45;;;;;;;2.88;1.45;;;17.50;83.00;;;;;;3542322;40;20077;-66
2021/08/03 06:38:12;;;;;;;3.50;1.42;;;17.50;82.50;;;;;;3542594;40;20078;-66
2021/08/03 06:40:46;;;;;;;3.92;1.70;;;17.60;82.80;;;;;;3541631;40;20061;-66
2021/08/03 06:43:21;;;;;;;4.35;1.80;;;17.70;82.60;;;;;;3541483;40;20054;-65
2021/08/03 06:45:48;;;;;;;5.43;2.30;;;17.70;82.20;;;;;;3542658;40;20510;-66
2021/08/03 06:48:27;;;;;;;4.85;2.00;;;17.90;81.80;;;;;;3542051;40;20078;-66
2021/08/03 06:51:01;;;;;;;4.35;1.95;;;18.10;79.50;;;;;;3541353;40;20773;-65
2021/08/03 06:53:28;;;;;;;2.17;1.60;;;18.20;78.60;;;;;;3541781;40;20039;-65
2021/08/03 06:55:56;;;;;;;2.97;1.80;;;18.30;78.10;;;;;;3541879;40;20037;-64
2021/08/03 06:58:42;;;;;;;9.63;1.98;;;18.30;78.60;;;;;;3540908;40;20362;-66
2021/08/03 07:01:17;;;;;;;4.10;1.88;;;18.30;78.20;;;;;;3541045;40;20037;-66
2021/08/03 07:03:47;;;;;;;4.63;2.25;;;18.40;77.80;;;;;;3548963;40;20033;-66
2021/08/03 07:06:13;;;;;;;4.38;2.08;;;18.50;76.40;;;;;;3541413;40;20034;-66
2021/08/03 07:08:40;;;;;;;5.70;2.17;;;18.50;77.60;;;;;;3542733;40;20038;-66
2021/08/03 07:11:07;;;;;;;4.47;2.20;;;18.50;77.70;;;;;;3541063;40;20049;-66
2021/08/03 07:13:33;;;;;;;4.13;1.75;;;18.60;76.90;;;;;;3541680;40;20026;-64
2021/08/03 07:16:03;;;;;;;2.35;1.73;;;18.60;76.00;;;;;;3540355;40;20059;-65
2021/08/03 07:18:29;;;;;;;4.35;1.60;;;18.70;76.70;;;;;;3541371;40;20034;-65
2021/08/03 07:20:55;;;;;;;3.78;1.83;;;18.70;78.20;;;;;;3541232;40;20097;-66
2021/08/03 07:23:22;;;;;;;2.33;1.48;;;18.80;77.00;;;;;;3541980;40;20034;-65
2021/08/03 07:25:50;;;;;;;4.78;1.85;;;19.00;77.50;;;;;;3541777;40;20045;-65
2021/08/03 07:28:16;;;;;;;7.93;1.67;;;19.20;76.90;;;;;;3541474;40;20039;-66
2021/08/03 07:30:42;;;;;;;3.97;1.42;;;19.40;74.90;;;;;;3541133;40;20046;-65
2021/08/03 07:33:16;;;;;;;4.13;1.55;;;19.40;74.00;;;;;;3544409;40;20304;-71
2021/08/03 07:35:42;;;;;;;3.03;1.50;;;19.50;73.20;;;;;;3540081;40;20675;-71
2021/08/03 07:38:10;;;;;;;3.60;1.50;;;19.50;73.20;;;;;;3540674;40;20399;-71
2021/08/03 07:40:36;;;;;;;2.85;1.40;;;19.60;73.20;;;;;;3549177;40;20326;-72
2021/08/03 07:43:04;;;;;;;2.55;1.83;;;19.70;73.70;;;;;;3542362;40;20030;-72
2021/08/03 07:45:30;;;;;;;2.90;1.65;;;19.80;72.70;;;;;;3541581;40;20038;-71
2021/08/03 07:47:57;;;;;;;2.35;1.50;;;19.90;70.80;;;;;;3540942;40;20034;-71
2021/08/03 07:50:23;;;;;;;3.63;2.17;;;20.00;72.30;;;;;;3536601;40;20082;-71
2021/08/03 07:52:49;;;;;;;3.80;1.90;;;20.10;71.70;;;;;;3540687;40;20144;-72
2021/08/03 07:55:14;;;;;;;2.40;1.70;;;20.30;72.20;;;;;;3540804;40;20046;-72
2021/08/03 07:57:40;;;;;;;7.32;1.92;;;20.60;68.90;;;;;;3541075;40;20036;-72
2021/08/03 08:00:06;;;;;;;4.72;1.88;;;20.80;68.70;;;;;;3540982;40;20038;-71
2021/08/03 08:02:33;;;;;;;6.40;1.75;;;20.90;70.10;;;;;;3541558;40;20027;-72
2021/08/03 08:04:59;;;;;;;5.40;1.73;;;21.00;67.60;;;;;;3540551;40;20037;-72
2021/08/03 08:07:26;;;;;;;9.55;5.65;;;21.00;68.00;;;;;;3541495;40;20030;-72
2021/08/03 08:09:51;;;;;;;7.43;3.78;;;21.00;67.70;;;;;;3541194;40;20413;-71
2021/08/03 08:12:17;;;;;;;11.05;4.50;;;21.00;68.50;;;;;;3540144;40;20036;-71
2021/08/03 08:14:43;;;;;;;9.13;3.38;;;21.10;67.40;;;;;;3541663;40;20126;-73
2021/08/03 08:17:08;;;;;;;5.40;3.63;;;21.20;66.30;;;;;;3540395;40;20072;-72
2021/08/03 08:19:34;;;;;;;8.10;3.70;;;21.30;65.60;;;;;;3539997;40;20027;-72
2021/08/03 08:22:00;;;;;;;7.13;3.55;;;21.40;65.60;;;;;;3540801;40;20101;-72
2021/08/03 08:24:25;;;;;;;7.75;2.97;;;21.50;64.30;;;;;;3540815;40;20038;-71
2021/08/03 08:26:51;;;;;;;4.43;1.75;;;21.50;64.90;;;;;;3540729;40;20121;-72
2021/08/03 08:29:17;;;;;;;4.40;2.13;;;21.50;63.40;;;;;;3540411;40;20038;-71
2021/08/03 08:31:44;;;;;;;5.88;2.17;;;21.60;63.20;;;;;;3539048;40;20046;-72
2021/08/03 08:34:11;;;;;;;4.43;2.20;;;21.70;62.80;;;;;;3540718;40;20606;-71
2021/08/03 08:36:37;;;;;;;8.07;3.20;;;21.70;63.20;;;;;;3540899;40;20038;-71
2021/08/03 08:39:04;;;;;;;5.97;2.70;;;21.60;64.30;;;;;;3540984;40;20038;-71
2021/08/03 08:41:30;;;;;;;4.65;2.45;;;21.60;62.00;;;;;;3539267;40;20038;-71
2021/08/03 08:43:55;;;;;;;4.57;2.58;;;21.60;62.60;;;;;;3541176;40;20093;-66
2021/08/03 08:46:21;;;;;;;5.57;2.55;;;21.70;63.00;;;;;;3540972;40;20037;-66
2021/08/03 08:48:48;;;;;;;4.43;2.30;;;21.70;62.40;;;;;;3539752;40;20042;-65
2021/08/03 08:51:14;;;;;;;5.38;2.53;;;21.70;63.60;;;;;;3539697;40;20311;-66
2021/08/03 08:53:39;;;;;;;5.28;3.08;;;21.80;64.90;;;;;;3540856;40;20043;-65
2021/08/03 08:56:05;;;;;;;8.48;3.60;;;21.80;62.50;;;;;;3541707;40;20580;-65
2021/08/03 08:58:35;;;;;;;9.23;2.22;;;21.90;64.50;;;;;;3541632;40;20066;-65
2021/08/03 09:01:02;;;;;;;6.88;2.10;;;22.00;62.60;;;;;;3541035;40;20030;-65
2021/08/03 09:03:28;;;;;;;4.43;2.05;;;22.00;61.30;;;;;;3541690;40;20034;-65
2021/08/03 09:05:59;;;;;;;3.15;1.98;;;22.10;62.10;;;;;;3541663;40;20038;-64
2021/08/03 09:08:34;;;;;;;5.35;1.70;;;22.20;61.80;;;;;;3539862;40;20092;-65
2021/08/03 09:11:05;;;;;;;2.60;1.73;;;22.30;59.50;;;;;;3540478;40;20046;-65
2021/08/03 09:13:48;;;;;;;5.38;1.52;;;22.30;59.50;;;;;;3539226;40;20116;-65
2021/08/03 09:16:14;;;;;;;3.53;1.50;;;22.10;59.70;;;;;;3540557;40;20050;-65
2021/08/03 09:18:43;;;;;;;4.00;1.67;;;21.90;62.60;;;;;;3538802;40;20034;-66
2021/08/03 09:21:26;;;;;;;4.93;2.10;;;21.80;63.40;;;;;;3539411;40;20161;-66
2021/08/03 09:23:53;;;;;;;3.88;1.55;;;21.80;62.60;;;;;;3539314;40;20077;-65
2021/08/03 09:26:38;;;;;;;4.07;1.58;;;22.00;61.00;;;;;;3538565;40;20097;-65
2021/08/03 09:29:06;;;;;;;4.55;1.58;;;22.10;62.10;;;;;;3544364;40;20057;-65
2021/08/03 09:31:35;;;;;;;2.38;1.60;;;22.20;59.20;;;;;;3539598;40;20038;-65
2021/08/03 09:34:10;;;;;;;2.75;1.63;;;22.10;60.30;;;;;;3539651;40;20046;-65
2021/08/03 09:36:55;;;;;;;5.37;1.73;;;21.90;61.30;;;;;;3541633;40;20564;-72
2021/08/03 09:39:45;;;;;;;4.73;1.40;;;21.90;60.10;;;;;;3542232;40;20319;-71
2021/08/03 09:42:18;;;;;;;3.35;1.67;;;21.90;58.00;;;;;;3541291;40;20030;-71
2021/08/03 09:44:52;;;;;;;4.38;2.42;;;21.80;60.10;;;;;;3541916;40;20069;-72
2021/08/03 09:47:19;;;;;;;2.92;1.70;;;21.80;60.40;;;;;;3541581;40;20043;-71
2021/08/03 09:49:48;;;;;;;5.40;1.70;;;21.70;60.30;;;;;;3541266;40;20090;-71
2021/08/03 09:52:20;;;;;;;3.22;1.73;;;21.80;60.50;;;;;;3541614;40;20133;-71
2021/08/03 09:54:46;;;;;;;9.43;4.10;;;21.90;61.00;;;;;;3540924;40;20165;-71
2021/08/03 09:57:25;;;;;;;5.60;2.50;;;21.90;63.00;;;;;;3541426;40;20156;-71
2021/08/03 09:59:53;;;;;;;10.48;6.38;;;22.10;60.20;;;;;;3540869;40;20042;-70
2021/08/03 10:02:24;;;;;;;11.23;5.25;;;22.20;60.00;;;;;;3542083;40;20106;-71
2021/08/03 10:04:52;;;;;;;5.28;1.67;;;22.30;61.50;;;;;;3542700;40;20045;-72
2021/08/03 10:07:18;;;;;;;3.38;1.83;;;22.50;58.60;;;;;;3543076;40;20120;-72
2021/08/03 10:09:45;;;;;;;6.03;3.58;;;22.60;59.00;;;;;;3542936;40;20038;-71
2021/08/03 10:12:12;;;;;;;11.20;6.95;;;22.70;58.40;;;;;;3542223;40;20034;-71
2021/08/03 10:14:38;;;;;;;3.95;2.72;;;22.80;59.40;;;;;;3542977;40;20690;-69
2021/08/03 10:17:04;;;;;;;3.65;1.85;;;23.00;58.60;;;;;;3543076;40;20782;-70
2021/08/03 10:19:36;;;;;;;2.85;1.98;;;23.10;57.60;;;;;;3541557;40;20037;-70
2021/08/03 10:22:10;;;;;;;3.80;1.92;;;23.10;58.50;;;;;;3542590;40;20046;-71
2021/08/03 10:24:56;;;;;;;4.43;2.42;;;23.10;57.10;;;;;;3542177;40;20073;-70
2021/08/03 10:27:37;;;;;;;4.68;1.42;;;23.10;55.90;;;;;;3543094;40;20070;-71
2021/08/03 10:30:03;;;;;;;4.07;2.33;;;22.90;57.10;;;;;;3542496;40;20042;-71
2021/08/03 10:32:49;;;;;;;3.63;2.92;;;22.70;56.40;;;;;;3542729;40;20061;-70
2021/08/03 10:35:17;;;;;;;;;;;22.60;57.30;;;;;;3543615;40;20105;-70
2021/08/03 10:38:00;;;;;;;5.18;2.30;;;22.60;58.40;;;;;;3543279;40;19937;-76
2021/08/03 10:40:45;;;;;;;4.63;1.90;;;22.60;57.20;;;;;;3543470;40;20042;-70
2021/08/03 10:43:35;;;;;;;3.28;1.48;;;22.50;59.40;;;;;;3543360;40;20038;-71
2021/08/03 10:46:06;;;;;;;2.58;1.45;;;22.30;58.80;;;;;;3543633;40;20037;-71
2021/08/03 10:48:38;;;;;;;2.33;1.23;;;22.30;59.00;;;;;;3542884;40;20042;-70
2021/08/03 10:51:15;;;;;;;1.27;1.15;;;22.10;57.50;;;;;;3543718;40;20075;-70
2021/08/03 10:54:00;;;;;;;3.17;1.50;;;22.10;59.00;;;;;;3543275;40;20048;-70
2021/08/03 10:56:45;;;;;;;2.50;1.35;;;22.00;63.70;;;;;;3543299;40;20323;-71
2021/08/03 10:59:42;;;;;;;1.42;1.10;;;22.00;61.80;;;;;;3541200;40;20056;-71
2021/08/03 11:02:31;;;;;;;;;;;22.00;59.90;;;;;;3542859;40;20049;-71
2021/08/03 11:04:58;;;;;;;4.07;1.27;;;22.30;58.30;;;;;;3538419;40;19937;-71
2021/08/03 11:07:28;;;;;;;1.65;1.08;;;22.50;59.20;;;;;;3542105;40;20048;-70
2021/08/03 11:09:55;;;;;;;4.07;1.50;;;22.60;57.40;;;;;;3541747;40;20038;-70
2021/08/03 11:12:46;;;;;;;4.25;1.50;;;22.70;58.00;;;;;;3542081;40;20034;-70
2021/08/03 11:15:23;;;;;;;2.17;1.25;;;22.80;55.80;;;;;;3542619;40;20034;-70
2021/08/03 11:18:03;;;;;;;2.92;1.20;;;22.70;56.10;;;;;;3541294;40;20584;-70
2021/08/03 11:20:35;;;;;;;2.80;1.20;;;22.70;55.90;;;;;;3541425;40;20034;-71
2021/08/03 11:23:04;;;;;;;2.40;1.30;;;22.80;55.80;;;;;;3542811;40;20030;-73
2021/08/03 11:25:31;;;;;;;2.25;1.45;;;22.80;56.40;;;;;;3541702;40;20014;-71
2021/08/03 11:28:09;;;;;;;2.72;1.50;;;22.80;55.10;;;;;;3549454;40;20083;-70
2021/08/03 11:30:35;;;;;;;3.55;1.33;;;22.80;54.90;;;;;;3541991;40;20042;-69
2021/08/03 11:33:01;;;;;;;3.00;0.90;;;22.80;54.70;;;;;;3542053;40;20038;-70
2021/08/03 11:35:28;;;;;;;4.50;1.27;;;22.70;55.70;;;;;;3542447;40;20027;-70
2021/08/03 11:37:54;;;;;;;3.95;1.40;;;22.70;57.20;;;;;;3549242;40;20034;-71
2021/08/03 11:40:20;;;;;;;4.55;1.45;;;22.70;56.60;;;;;;3542051;40;20038;-70
2021/08/03 11:42:47;;;;;;;6.25;1.27;;;22.80;56.30;;;;;;3541778;40;20036;-71
2021/08/03 11:45:14;;;;;;;4.28;1.45;;;22.80;54.80;;;;;;3542184;40;20038;-70
2021/08/03 11:47:44;;;;;;;6.10;3.00;;;22.80;54.90;;;;;;3542049;40;20133;-70
2021/08/03 11:50:12;;;;;;;4.38;2.30;;;23.00;55.30;;;;;;3540682;40;20057;-71
2021/08/03 11:52:37;;;;;;;6.50;4.35;;;23.00;54.40;;;;;;3543209;40;20336;-70
2021/08/03 11:55:04;;;;;;;4.70;2.40;;;23.00;55.30;;;;;;3541849;40;20039;-71
2021/08/03 11:57:34;;;;;;;2.25;1.38;;;23.10;52.00;;;;;;3543091;40;20665;-71
2021/08/03 12:00:01;;;;;;;5.53;2.47;;;23.10;53.10;;;;;;3543068;40;20385;-71
2021/08/03 12:02:27;;;;;;;4.25;1.52;;;22.90;53.30;;;;;;3542338;40;20046;-70
2021/08/03 12:05:15;;;;;;;5.93;2.05;;;22.90;52.40;;;;;;3541959;40;20193;-69
2021/08/03 12:07:53;;;;;;;3.35;1.60;;;22.80;54.90;;;;;;3542664;40;20435;-70
2021/08/03 12:10:25;;;;;;;1.88;1.30;;;22.80;53.20;;;;;;3543862;40;20038;-70
2021/08/03 12:12:51;;;;;;;3.63;2.22;;;23.00;52.70;;;;;;3542157;40;20030;-71
2021/08/03 12:15:20;;;;;;;3.95;1.60;;;23.10;52.30;;;;;;3541116;40;20085;-70
2021/08/03 12:17:47;;;;;;;5.82;2.28;;;23.20;53.60;;;;;;3542360;40;20584;-70
2021/08/03 12:20:23;;;;;;;1.20;1.10;;;23.20;52.80;;;;;;3549253;40;20034;-71
2021/08/03 12:22:48;;;;;;;1.42;1.30;;;23.10;52.30;;;;;;3542105;40;20560;-71
2021/08/03 12:25:14;;;;;;;4.68;1.90;;;23.00;51.70;;;;;;3540322;40;20054;-72
2021/08/03 12:27:43;;;;;;;1.70;1.48;;;23.00;53.20;;;;;;3541978;40;20320;-72
2021/08/03 12:30:46;;;;;;;4.03;1.95;;;23.00;54.60;;;;;;3541920;40;20034;-68
2021/08/03 12:33:30;;;;;;;1.67;1.30;;;23.10;53.50;;;;;;3538820;40;20070;-68
2021/08/03 12:36:15;;;;;;;4.28;1.40;;;23.30;52.80;;;;;;3541771;40;20616;-68
2021/08/03 12:39:01;;;;;;;3.17;2.22;;;23.30;52.40;;;;;;3540150;40;20046;-69
2021/08/03 12:41:30;;;;;;;3.78;1.60;;;23.40;54.10;;;;;;3541628;40;20049;-71
2021/08/03 12:43:57;;;;;;;4.68;3.03;;;23.50;52.10;;;;;;3541635;40;20026;-77
2021/08/03 12:46:37;;;;;;;3.38;1.27;;;23.40;52.50;;;;;;3540843;40;20030;-69
2021/08/03 12:49:05;;;;;;;3.70;1.50;;;23.50;51.60;;;;;;3541230;40;20062;-68
2021/08/03 12:51:32;;;;;;;3.08;2.03;;;23.50;51.60;;;;;;3540975;40;20034;-68
2021/08/03 12:54:12;;;;;;;5.72;2.40;;;23.40;51.50;;;;;;3540425;40;20045;-69
2021/08/03 12:56:55;;;;;;;4.00;2.72;;;23.40;52.10;;;;;;3540978;40;20042;-70
2021/08/03 12:59:35;;;;;;;2.53;1.60;;;23.30;52.30;;;;;;3541662;40;20022;-68
2021/08/03 13:02:02;;;;;;;5.40;3.80;;;23.40;52.50;;;;;;3547409;40;20494;-69
2021/08/03 13:04:27;;;;;;;7.53;4.82;;;23.30;53.30;;;;;;3541253;40;20046;-68